Time;durP1;ratioP1;P1;durP2;ratioP2;P2;SDS_P1;SDS_P2;PMS_P1;PMS_P2;Temp;Humidity;BMP_temperature;BMP_pressure;BME280_temperature;BME280_humidity;BME280_pressure;Samples;Min_cycle;Max_cycle;Signal;HPM_P1;HPM_P2
2023/03/18 00:01:55;;;;;;;75.78;15.85;;;11.00;99.90;;;;;;5035226;28;20181;-88
2023/03/18 00:04:29;;;;;;;72.30;15.90;;;11.00;99.90;;;;;;5030404;28;20640;-87
2023/03/18 00:06:58;;;;;;;74.00;14.75;;;11.00;99.90;;;;;;5033918;28;20707;-87
2023/03/18 00:09:25;;;;;;;74.85;16.67;;;11.00;99.90;;;;;;5030779;28;20181;-87
2023/03/18 00:12:00;;;;;;;76.15;15.93;;;10.90;99.90;;;;;;5035541;28;20161;-87
2023/03/18 00:14:30;;;;;;;71.07;12.43;;;11.00;99.90;;;;;;5032101;28;20153;-87
2023/03/18 00:16:58;;;;;;;73.38;17.15;;;11.00;99.90;;;;;;5035471;28;20691;-87
2023/03/18 00:19:24;;;;;;;73.40;19.25;;;10.90;99.90;;;;;;5029750;28;20272;-87
2023/03/18 00:21:54;;;;;;;82.50;22.77;;;10.90;99.90;;;;;;5036143;28;20173;-87
2023/03/18 00:24:27;;;;;;;73.72;20.45;;;10.90;99.90;;;;;;5032819;28;20161;-87
2023/03/18 00:27:02;;;;;;;73.57;19.38;;;10.90;99.90;;;;;;5037510;28;20185;-87
2023/03/18 00:29:38;;;;;;;76.35;19.38;;;10.90;99.90;;;;;;5031634;28;20205;-87
2023/03/18 00:32:15;;;;;;;75.25;20.55;;;10.90;99.90;;;;;;5035714;28;20545;-87
2023/03/18 00:35:02;;;;;;;;;;;;;;;;;;;;;
2023/03/18 00:37:41;;;;;;;78.03;24.35;;;10.90;99.90;;;;;;5035787;28;20544;-87
2023/03/18 00:43:13;;;;;;;75.85;21.58;;;10.90;99.90;;;;;;5013601;28;20705;-87
2023/03/18 00:49:04;;;;;;;85.53;15.77;;;10.90;99.90;;;;;;5013262;28;20208;-87
2023/03/18 00:51:36;;;;;;;73.47;18.65;;;10.90;99.90;;;;;;5014042;28;20177;-87
2023/03/18 00:54:59;;;;;;;80.57;22.38;;;10.90;99.90;;;;;;4998653;28;20182;-87
2023/03/18 01:00:11;;;;;;;80.35;29.85;;;10.90;99.90;;;;;;5014438;28;20587;-86
2023/03/18 01:02:52;;;;;;;76.75;26.20;;;10.90;99.90;;;;;;4997859;28;20187;-87
2023/03/18 01:05:29;;;;;;;78.18;30.13;;;10.90;99.90;;;;;;5014331;28;20267;-87
2023/03/18 01:07:58;;;;;;;78.78;30.45;;;10.90;99.90;;;;;;5013500;28;20169;-86
2023/03/18 01:10:36;;;;;;;81.47;30.98;;;10.90;99.90;;;;;;4998215;28;20173;-87
2023/03/18 01:13:02;;;;;;;77.63;31.10;;;11.00;99.90;;;;;;5036348;28;20188;-87
2023/03/18 01:15:29;;;;;;;78.35;32.78;;;11.00;99.90;;;;;;5031040;28;20176;-87
2023/03/18 01:17:55;;;;;;;83.22;32.58;;;11.00;99.90;;;;;;5034598;28;20172;-87
2023/03/18 01:20:31;;;;;;;80.35;34.45;;;11.00;99.90;;;;;;5029369;28;20165;-86
2023/03/18 01:23:17;;;;;;;84.75;37.30;;;11.00;99.90;;;;;;5034737;28;20186;-87
2023/03/18 01:25:49;;;;;;;80.45;29.25;;;11.00;99.90;;;;;;5027216;28;20731;-86
2023/03/18 01:28:33;;;;;;;80.65;31.98;;;10.90;99.90;;;;;;5028215;28;20165;-87
2023/03/18 01:31:18;;;;;;;77.00;25.60;;;10.90;99.90;;;;;;5034881;28;20513;-87
2023/03/18 01:34:04;;;;;;;82.80;27.05;;;10.90;99.90;;;;;;5035774;28;20200;-87
2023/03/18 01:36:56;;;;;;;80.30;26.33;;;10.90;99.90;;;;;;5047807;28;20165;-87
2023/03/18 01:39:27;;;;;;;83.13;23.63;;;10.80;99.90;;;;;;5051029;28;20169;-87
2023/03/18 01:42:02;;;;;;;78.32;27.17;;;10.90;99.90;;;;;;5035149;28;20184;-87
2023/03/18 01:44:39;;;;;;;81.32;27.73;;;10.90;99.90;;;;;;5046249;28;20219;-86
2023/03/18 01:47:21;;;;;;;78.75;29.30;;;10.90;99.90;;;;;;5034059;28;20224;-87
2023/03/18 01:50:27;;;;;;;84.28;37.25;;;10.90;99.90;;;;;;5035400;28;20173;-87
2023/03/18 01:53:23;;;;;;;82.88;33.83;;;10.90;99.90;;;;;;5031998;28;20287;-87
2023/03/18 01:59:11;;;;;;;80.40;29.65;;;10.90;99.90;;;;;;5035366;28;20259;-87
2023/03/18 02:02:17;;;;;;;80.10;35.25;;;10.90;99.90;;;;;;5036881;28;20166;-87
2023/03/18 02:05:28;;;;;;;82.90;24.55;;;10.90;99.90;;;;;;5037141;28;20176;-87
2023/03/18 02:11:29;;;;;;;;;;;;;;;;;;;;;
2023/03/18 02:14:18;;;;;;;78.15;20.10;;;10.80;99.90;;;;;;5038088;28;20268;-87
2023/03/18 02:20:53;;;;;;;;;;;;;;;;;;;;;
2023/03/18 02:24:04;;;;;;;74.90;17.38;;;10.60;99.90;;;;;;5021019;28;20288;-87
2023/03/18 02:27:07;;;;;;;77.03;20.85;;;10.50;99.90;;;;;;5031486;28;20181;-87
2023/03/18 02:29:54;;;;;;;;;;;;;;;;;;;;;
2023/03/18 02:32:47;;;;;;;;;;;;;;;;;;;;;
2023/03/18 02:35:47;;;;;;;78.40;19.67;;;10.50;99.90;;;;;;5035737;28;20588;-87
2023/03/18 02:39:00;;;;;;;72.30;13.75;;;10.40;99.90;;;;;;5028668;28;20169;-87
2023/03/18 02:41:47;;;;;;;71.20;10.52;;;10.40;99.90;;;;;;5014103;28;20174;-87
2023/03/18 02:44:58;;;;;;;73.60;11.63;;;10.40;99.90;;;;;;4997471;28;20197;-87
2023/03/18 02:47:30;;;;;;;75.10;12.35;;;10.30;99.90;;;;;;5025279;28;20200;-87
2023/03/18 02:50:12;;;;;;;71.53;10.07;;;10.20;99.90;;;;;;5002279;28;20177;-86
2023/03/18 02:53:20;;;;;;;71.38;11.00;;;10.10;99.90;;;;;;5034194;28;20665;-87
2023/03/18 02:55:49;;;;;;;73.78;11.63;;;10.00;99.90;;;;;;5032663;28;20529;-87
2023/03/18 02:58:40;;;;;;;;;;;;;;;;;;;;;
2023/03/18 03:01:30;;;;;;;71.13;13.40;;;9.90;99.90;;;;;;5035912;28;20260;-86
2023/03/18 03:04:00;;;;;;;73.18;14.52;;;9.80;99.90;;;;;;5025604;28;20193;-87
2023/03/18 03:06:26;;;;;;;75.80;13.63;;;9.80;99.90;;;;;;5030632;28;20559;-87
2023/03/18 03:08:54;;;;;;;74.43;16.30;;;9.80;99.90;;;;;;5034738;28;20169;-87
2023/03/18 03:11:23;;;;;;;75.63;19.38;;;9.80;99.90;;;;;;5029497;28;20172;-86
2023/03/18 03:13:52;;;;;;;77.90;19.00;;;9.80;99.90;;;;;;5035728;28;20193;-87
2023/03/18 03:16:21;;;;;;;76.38;19.55;;;9.70;99.90;;;;;;5035848;28;20168;-87
2023/03/18 03:18:50;;;;;;;73.70;20.35;;;9.70;99.90;;;;;;5033118;28;20195;-87
2023/03/18 03:21:16;;;;;;;74.47;22.30;;;9.70;99.90;;;;;;5035950;28;20161;-87
2023/03/18 03:23:48;;;;;;;76.03;19.63;;;9.70;99.90;;;;;;5035731;28;20710;-87
2023/03/18 03:26:15;;;;;;;77.47;20.40;;;9.70;99.90;;;;;;5045143;28;20454;-87
2023/03/18 03:28:43;;;;;;;76.40;25.40;;;9.70;99.90;;;;;;5050852;28;20172;-86
2023/03/18 03:31:25;;;;;;;79.88;22.88;;;9.70;99.90;;;;;;5028272;28;20560;-86
2023/03/18 03:33:51;;;;;;;76.93;21.17;;;9.70;99.90;;;;;;5035441;28;20203;-87
2023/03/18 03:36:20;;;;;;;75.47;18.77;;;9.60;99.90;;;;;;5029757;28;20169;-87
2023/03/18 03:38:45;;;;;;;77.45;18.98;;;9.60;99.90;;;;;;5037269;28;20165;-87
2023/03/18 03:41:12;;;;;;;73.27;16.33;;;9.60;99.90;;;;;;5038138;28;20165;-87
2023/03/18 03:43:42;;;;;;;75.35;21.95;;;9.50;99.90;;;;;;5037642;28;20607;-87
2023/03/18 03:46:17;;;;;;;80.78;21.42;;;9.50;99.90;;;;;;5038252;28;20273;-87
2023/03/18 03:48:50;;;;;;;78.10;19.73;;;9.40;99.90;;;;;;5038172;28;20153;-87
2023/03/18 03:51:23;;;;;;;72.63;15.82;;;9.40;99.90;;;;;;5038726;28;20142;-88
2023/03/18 03:53:54;;;;;;;73.80;17.00;;;9.40;99.90;;;;;;5036115;28;20685;-87
2023/03/18 03:56:27;;;;;;;77.60;17.58;;;9.30;99.90;;;;;;5052207;28;20556;-86
2023/03/18 03:58:55;;;;;;;75.32;18.95;;;9.30;99.90;;;;;;5041482;28;20247;-87
2023/03/18 04:01:23;;;;;;;77.15;20.25;;;9.30;99.90;;;;;;5035110;28;20176;-87
2023/03/18 04:03:55;;;;;;;79.18;20.70;;;9.20;99.90;;;;;;5041424;28;20333;-87
2023/03/18 04:06:23;;;;;;;75.38;18.95;;;9.20;99.90;;;;;;5041387;28;20188;-87
2023/03/18 04:08:52;;;;;;;75.22;24.27;;;9.20;99.90;;;;;;5042281;28;20579;-87
2023/03/18 04:11:20;;;;;;;75.88;24.58;;;9.10;99.90;;;;;;5041644;28;20161;-86
2023/03/18 04:13:49;;;;;;;74.93;21.85;;;9.10;99.90;;;;;;5037643;28;20189;-87
2023/03/18 04:16:15;;;;;;;76.28;18.55;;;9.00;99.90;;;;;;5039803;28;20166;-87
2023/03/18 04:18:42;;;;;;;75.93;21.15;;;9.00;99.90;;;;;;5036976;28;20181;-87
2023/03/18 04:21:12;;;;;;;75.15;18.38;;;9.00;99.90;;;;;;5039926;28;20166;-86
2023/03/18 04:23:45;;;;;;;77.15;20.50;;;9.00;99.90;;;;;;5035617;28;20196;-86
2023/03/18 04:26:11;;;;;;;77.18;24.35;;;9.00;99.90;;;;;;5048145;28;20200;-86
2023/03/18 04:28:40;;;;;;;75.47;19.00;;;8.90;99.90;;;;;;5038581;28;20165;-87
2023/03/18 04:31:09;;;;;;;72.70;16.13;;;9.00;99.90;;;;;;5030413;28;20408;-87
2023/03/18 04:33:38;;;;;;;77.53;15.57;;;9.00;99.90;;;;;;5038914;28;20184;-87
2023/03/18 04:36:04;;;;;;;74.60;16.23;;;9.00;99.90;;;;;;5030435;28;20649;-87
2023/03/18 04:38:33;;;;;;;79.45;22.15;;;9.00;99.90;;;;;;5037705;28;20200;-87
2023/03/18 04:41:06;;;;;;;76.80;25.10;;;8.90;99.90;;;;;;5039639;28;20169;-87
2023/03/18 04:43:32;;;;;;;81.13;22.77;;;8.90;99.90;;;;;;5039539;28;20185;-87
2023/03/18 04:45:58;;;;;;;79.45;26.25;;;8.90;99.90;;;;;;5030041;28;20538;-87
2023/03/18 04:48:24;;;;;;;75.90;24.47;;;8.90;99.90;;;;;;5038135;28;20215;-86
2023/03/18 04:50:50;;;;;;;81.90;28.50;;;8.90;99.90;;;;;;5039832;28;20396;-87
2023/03/18 04:53:19;;;;;;;80.37;28.87;;;8.90;99.90;;;;;;5033030;28;20712;-87
2023/03/18 04:55:45;;;;;;;78.03;28.50;;;8.90;99.90;;;;;;5040178;28;20177;-86
2023/03/18 04:58:21;;;;;;;81.07;31.57;;;8.90;99.90;;;;;;5039748;28;20165;-87
2023/03/18 05:00:47;;;;;;;82.13;29.85;;;8.90;99.90;;;;;;5036877;28;20173;-87
2023/03/18 05:03:18;;;;;;;80.40;35.17;;;8.80;99.90;;;;;;5040016;28;20695;-88
2023/03/18 05:05:45;;;;;;;77.63;27.77;;;8.90;99.90;;;;;;5053960;28;20194;-86
2023/03/18 05:08:11;;;;;;;79.65;29.58;;;8.90;99.90;;;;;;5032570;28;20261;-86
2023/03/18 05:10:39;;;;;;;78.80;28.42;;;8.90;99.90;;;;;;5054931;28;20248;-87
2023/03/18 05:13:05;;;;;;;77.90;22.35;;;8.90;99.90;;;;;;5040327;28;20200;-87
2023/03/18 05:15:31;;;;;;;82.13;27.33;;;8.80;99.90;;;;;;5040986;28;20189;-87
2023/03/18 05:18:00;;;;;;;76.05;23.95;;;8.90;99.90;;;;;;5040941;28;20165;-87
2023/03/18 05:20:26;;;;;;;78.32;26.30;;;8.90;99.90;;;;;;5040216;28;20158;-87
2023/03/18 05:22:52;;;;;;;82.38;30.58;;;9.00;99.90;;;;;;5038837;28;20267;-87
2023/03/18 05:25:20;;;;;;;80.45;30.58;;;8.90;99.90;;;;;;5039976;28;20212;-88
2023/03/18 05:27:49;;;;;;;87.38;32.00;;;9.00;99.90;;;;;;5040574;28;20236;-87
2023/03/18 05:30:18;;;;;;;78.97;31.33;;;8.90;99.90;;;;;;5049607;28;20161;-87
2023/03/18 05:32:47;;;;;;;79.75;30.45;;;8.90;99.90;;;;;;5055986;28;20556;-87
2023/03/18 05:35:13;;;;;;;82.13;31.30;;;8.90;99.90;;;;;;5040842;28;20157;-87
2023/03/18 05:37:39;;;;;;;79.57;35.27;;;8.90;99.90;;;;;;5036238;28;20184;-87
2023/03/18 05:40:10;;;;;;;83.77;35.57;;;9.00;99.90;;;;;;5031504;28;20447;-88
2023/03/18 05:42:36;;;;;;;81.03;33.25;;;9.00;99.90;;;;;;5039582;28;20193;-87
2023/03/18 05:45:03;;;;;;;77.47;29.75;;;8.90;99.90;;;;;;5108402;23;20582;-80
2023/03/18 05:47:29;;;;;;;79.35;32.88;;;8.90;99.90;;;;;;5058081;28;20655;-80
2023/03/18 05:49:55;;;;;;;80.27;30.93;;;8.90;99.90;;;;;;5057763;28;20244;-80
2023/03/18 05:52:20;;;;;;;79.00;27.07;;;8.90;99.90;;;;;;5057278;28;20422;-80
2023/03/18 05:54:49;;;;;;;78.90;32.40;;;8.90;99.90;;;;;;5057547;28;20168;-79
2023/03/18 05:57:15;;;;;;;79.78;33.72;;;8.90;99.90;;;;;;5049907;28;20169;-79
2023/03/18 05:59:42;;;;;;;80.35;31.25;;;8.90;99.90;;;;;;5057226;28;20161;-79
2023/03/18 06:04:41;;;;;;;78.30;29.33;;;8.90;99.90;;;;;;5289259;22;20220;-81
2023/03/18 06:07:07;;;;;;;75.90;26.77;;;8.90;99.90;;;;;;5056812;28;20189;-81
2023/03/18 06:09:36;;;;;;;77.17;28.57;;;8.90;99.90;;;;;;5039160;28;20540;-81
2023/03/18 06:12:02;;;;;;;78.15;27.98;;;8.90;99.90;;;;;;5055564;28;20188;-80
2023/03/18 06:14:31;;;;;;;78.30;25.40;;;8.90;99.90;;;;;;5056915;28;20164;-79
2023/03/18 06:17:08;;;;;;;74.38;25.17;;;9.00;99.90;;;;;;5056013;28;20533;-79
2023/03/18 06:19:37;;;;;;;77.97;24.63;;;9.00;99.90;;;;;;5056602;28;20172;-81
2023/03/18 06:22:05;;;;;;;73.68;17.15;;;9.00;99.90;;;;;;5056811;28;20552;-80
2023/03/18 06:24:31;;;;;;;77.05;24.70;;;9.00;99.90;;;;;;5056706;28;20188;-79
2023/03/18 06:26:57;;;;;;;78.00;22.60;;;9.00;99.90;;;;;;5056590;28;20200;-80
2023/03/18 06:29:22;;;;;;;77.50;26.97;;;9.10;99.90;;;;;;5056883;28;20165;-79
2023/03/18 06:31:48;;;;;;;77.57;27.30;;;9.10;99.90;;;;;;5056406;28;20164;-79
2023/03/18 06:34:16;;;;;;;80.88;26.38;;;9.10;99.90;;;;;;5056204;28;20528;-79
2023/03/18 06:36:42;;;;;;;77.97;21.50;;;9.10;99.90;;;;;;5052669;28;20156;-79
2023/03/18 06:39:09;;;;;;;77.20;22.70;;;9.10;99.90;;;;;;5056181;28;20165;-79
2023/03/18 06:41:38;;;;;;;75.63;19.75;;;9.10;99.90;;;;;;5051984;28;20153;-79
2023/03/18 06:44:04;;;;;;;76.97;21.15;;;9.10;99.90;;;;;;5056475;28;20191;-79
2023/03/18 06:46:29;;;;;;;78.07;19.92;;;9.20;99.90;;;;;;5051767;28;20192;-80
2023/03/18 06:48:55;;;;;;;81.37;21.30;;;9.20;99.90;;;;;;5056794;28;20188;-80
2023/03/18 06:51:24;;;;;;;78.23;23.83;;;9.30;99.90;;;;;;5050390;28;20169;-80
2023/03/18 06:53:59;;;;;;;78.55;22.48;;;9.30;99.90;;;;;;5056329;28;20181;-79
2023/03/18 06:56:25;;;;;;;78.63;23.58;;;9.40;99.90;;;;;;5057095;28;20158;-80
2023/03/18 06:58:51;;;;;;;82.43;29.38;;;9.50;99.90;;;;;;5057083;28;20165;-80
2023/03/18 07:01:18;;;;;;;82.40;31.73;;;9.60;99.90;;;;;;5056589;28;20167;-79
2023/03/18 07:03:44;;;;;;;80.55;28.40;;;9.70;99.90;;;;;;5056580;28;20176;-80
2023/03/18 07:06:10;;;;;;;80.50;28.17;;;9.70;99.90;;;;;;5056182;28;20200;-80
2023/03/18 07:08:36;;;;;;;84.00;26.00;;;9.80;99.90;;;;;;5052539;28;20169;-80
2023/03/18 07:11:02;;;;;;;76.15;19.58;;;9.90;99.90;;;;;;5056523;28;20192;-79
2023/03/18 07:13:28;;;;;;;78.95;22.05;;;10.00;99.90;;;;;;5056620;28;20664;-80
2023/03/18 07:15:55;;;;;;;77.87;22.10;;;10.10;99.90;;;;;;5056861;28;20179;-80
2023/03/18 07:18:22;;;;;;;76.88;25.00;;;10.20;99.90;;;;;;5056477;28;20172;-80
2023/03/18 07:20:48;;;;;;;78.90;24.58;;;10.30;99.90;;;;;;5056230;28;20161;-80
2023/03/18 07:23:14;;;;;;;77.30;25.23;;;10.30;99.90;;;;;;5048597;28;20184;-80
2023/03/18 07:25:40;;;;;;;76.47;24.00;;;10.40;99.90;;;;;;5055974;28;20417;-80
2023/03/18 07:28:06;;;;;;;78.68;26.63;;;10.50;99.90;;;;;;5056757;28;20192;-80
2023/03/18 07:30:32;;;;;;;76.87;26.70;;;10.50;99.90;;;;;;5059424;28;20172;-80
2023/03/18 07:32:58;;;;;;;84.50;28.80;;;10.60;99.90;;;;;;5059823;28;20423;-80
2023/03/18 07:35:24;;;;;;;76.87;29.03;;;10.60;99.90;;;;;;5053638;28;20195;-80
2023/03/18 07:37:50;;;;;;;76.10;26.90;;;10.70;99.90;;;;;;5060477;28;20175;-80
2023/03/18 07:40:16;;;;;;;77.30;28.27;;;10.80;99.90;;;;;;5059984;28;20619;-80
2023/03/18 07:42:42;;;;;;;80.45;30.65;;;10.80;99.90;;;;;;5059531;28;20216;-80
2023/03/18 07:45:09;;;;;;;74.37;21.90;;;10.90;99.90;;;;;;5059947;28;20226;-80
2023/03/18 07:47:34;;;;;;;76.05;24.92;;;11.00;99.90;;;;;;5059999;28;20710;-80
2023/03/18 07:50:00;;;;;;;77.10;32.57;;;11.00;99.90;;;;;;5059070;28;20172;-80
2023/03/18 07:52:26;;;;;;;77.30;28.90;;;11.10;99.90;;;;;;5059578;28;20190;-80
2023/03/18 07:54:51;;;;;;;74.67;24.17;;;11.20;99.90;;;;;;5060186;28;20176;-80
2023/03/18 07:57:17;;;;;;;74.30;21.97;;;11.20;99.90;;;;;;5059177;28;20192;-80
2023/03/18 07:59:44;;;;;;;74.05;19.25;;;11.30;99.90;;;;;;5059074;28;20989;-80
2023/03/18 08:02:16;;;;;;;73.72;21.98;;;11.40;99.90;;;;;;5051813;28;20187;-80
2023/03/18 08:04:42;;;;;;;71.70;9.55;;;11.40;99.90;;;;;;5058789;28;20659;-80
2023/03/18 08:07:09;;;;;;;70.95;8.88;;;11.50;99.90;;;;;;5051378;28;20207;-80
2023/03/18 08:09:35;;;;;;;75.35;8.05;;;11.60;99.90;;;;;;5059211;28;20206;-80
2023/03/18 08:12:01;;;;;;;68.20;8.25;;;11.60;99.90;;;;;;5059170;28;20165;-80
2023/03/18 08:14:27;;;;;;;69.78;8.75;;;11.70;99.90;;;;;;5059141;28;20172;-80
2023/03/18 08:16:53;;;;;;;70.10;9.53;;;11.70;99.90;;;;;;5058932;28;20593;-80
2023/03/18 08:19:18;;;;;;;70.17;11.07;;;11.70;99.90;;;;;;5058890;28;20156;-80
2023/03/18 08:21:44;;;;;;;69.90;9.40;;;11.70;99.90;;;;;;5058970;28;20169;-80
2023/03/18 08:24:10;;;;;;;72.07;10.20;;;11.70;99.90;;;;;;5058816;28;20192;-80
2023/03/18 08:26:36;;;;;;;69.15;10.10;;;11.80;99.90;;;;;;5059260;28;20161;-80
2023/03/18 08:29:02;;;;;;;68.10;9.60;;;11.80;99.90;;;;;;5059153;28;20215;-80
2023/03/18 08:31:28;;;;;;;77.40;11.03;;;11.80;99.90;;;;;;5058757;28;20427;-80
2023/03/18 08:33:55;;;;;;;70.47;10.37;;;11.90;99.90;;;;;;5057078;28;20726;-80
2023/03/18 08:36:21;;;;;;;70.70;9.80;;;12.00;99.90;;;;;;5052971;28;20223;-80
2023/03/18 08:38:48;;;;;;;71.70;9.95;;;12.00;99.90;;;;;;5058815;28;20258;-80
2023/03/18 08:41:15;;;;;;;70.55;10.88;;;12.10;99.90;;;;;;5057943;28;20156;-80
2023/03/18 08:43:41;;;;;;;69.57;11.40;;;12.20;99.90;;;;;;5055275;28;20193;-80
2023/03/18 08:46:07;;;;;;;69.97;10.90;;;12.30;99.90;;;;;;5058781;28;20239;-80
2023/03/18 08:48:33;;;;;;;68.97;11.50;;;12.30;99.90;;;;;;5058815;28;20175;-80
2023/03/18 08:51:08;;;;;;;69.80;12.00;;;12.40;99.90;;;;;;5058712;28;20167;-80
2023/03/18 08:53:34;;;;;;;71.93;9.63;;;12.50;99.90;;;;;;5058706;28;20194;-80
2023/03/18 08:56:01;;;;;;;69.95;8.38;;;12.50;99.90;;;;;;5049575;28;20196;-80
2023/03/18 08:58:30;;;;;;;68.93;7.90;;;12.60;99.90;;;;;;5057399;28;20168;-80
2023/03/18 09:00:56;;;;;;;68.90;6.65;;;12.60;99.90;;;;;;5058826;28;20191;-80
2023/03/18 09:03:23;;;;;;;71.93;7.73;;;12.70;99.90;;;;;;5052843;28;20659;-80
2023/03/18 09:05:49;;;;;;;68.57;7.05;;;12.70;99.90;;;;;;5058435;28;20176;-80
2023/03/18 09:08:15;;;;;;;67.50;7.20;;;12.70;99.90;;;;;;5058476;28;20243;-80
2023/03/18 09:10:40;;;;;;;67.87;6.93;;;12.80;99.90;;;;;;5054336;28;20177;-80
2023/03/18 09:13:08;;;;;;;70.80;7.50;;;12.90;99.90;;;;;;5058535;28;20955;-80
2023/03/18 09:15:33;;;;;;;69.60;7.63;;;13.00;99.90;;;;;;5058726;28;20167;-80
2023/03/18 09:17:59;;;;;;;68.93;7.37;;;13.00;99.90;;;;;;5058237;28;20157;-80
2023/03/18 09:20:25;;;;;;;69.40;8.17;;;13.00;99.90;;;;;;5058751;28;20159;-81
2023/03/18 09:22:51;;;;;;;69.15;8.85;;;13.10;99.90;;;;;;5056780;28;20187;-80
2023/03/18 09:25:18;;;;;;;70.70;7.43;;;13.10;99.90;;;;;;5058084;28;20168;-80
2023/03/18 09:27:44;;;;;;;68.13;7.80;;;13.20;99.90;;;;;;5054949;28;20415;-80
2023/03/18 09:30:11;;;;;;;69.07;8.77;;;13.20;99.90;;;;;;5058117;28;20169;-80
2023/03/18 09:32:36;;;;;;;69.50;7.80;;;13.30;99.90;;;;;;5054239;28;20283;-80
2023/03/18 09:35:03;;;;;;;67.80;7.17;;;13.30;99.90;;;;;;5049669;28;20600;-80
2023/03/18 09:37:28;;;;;;;68.43;8.50;;;13.40;99.90;;;;;;5058338;28;20599;-80
2023/03/18 09:39:54;;;;;;;71.40;8.47;;;13.40;99.90;;;;;;5058230;28;20157;-80
2023/03/18 09:42:41;;;;;;;67.90;7.50;;;13.50;99.90;;;;;;5058427;28;20181;-80
2023/03/18 09:45:22;;;;;;;70.55;9.32;;;13.60;99.90;;;;;;5034132;28;20720;-80
2023/03/18 09:48:23;;;;;;;71.00;7.40;;;13.60;99.90;;;;;;5058064;28;20144;-80
2023/03/18 09:51:15;;;;;;;67.25;5.65;;;13.70;99.90;;;;;;5057854;28;20187;-80
2023/03/18 09:54:01;;;;;;;68.20;6.43;;;13.80;99.90;;;;;;5035919;28;20200;-80
2023/03/18 09:56:35;;;;;;;67.28;5.88;;;13.80;99.90;;;;;;5052329;28;20185;-80
2023/03/18 09:59:30;;;;;;;68.60;6.00;;;13.90;99.90;;;;;;5056375;28;20181;-80
2023/03/18 10:01:57;;;;;;;67.13;5.55;;;14.00;99.90;;;;;;5054107;28;20177;-80
2023/03/18 10:04:25;;;;;;;66.40;6.10;;;14.20;99.90;;;;;;5057563;28;20167;-80
2023/03/18 10:07:00;;;;;;;72.20;6.53;;;14.30;99.90;;;;;;5057427;28;20399;-81
2023/03/18 10:09:55;;;;;;;69.50;6.27;;;14.40;99.90;;;;;;5052250;28;20402;-80
2023/03/18 10:12:34;;;;;;;70.40;6.53;;;14.60;99.90;;;;;;5057356;28;20446;-80
2023/03/18 10:15:44;;;;;;;70.50;8.60;;;14.70;99.90;;;;;;5057759;28;20397;-80
2023/03/18 10:18:26;;;;;;;69.43;9.77;;;14.90;99.90;;;;;;5050158;28;20916;-80
2023/03/18 10:21:13;;;;;;;69.30;9.70;;;15.20;99.90;;;;;;5055671;28;20902;-80
2023/03/18 10:24:11;;;;;;;70.70;9.20;;;15.20;95.00;;;;;;5053223;28;20442;-80
2023/03/18 10:26:59;;;;;;;71.40;10.47;;;15.20;73.00;;;;;;5052675;28;20784;-80
2023/03/18 10:29:45;;;;;;;69.70;8.70;;;15.20;71.60;;;;;;5051560;28;20761;-80
2023/03/18 10:32:19;;;;;;;69.67;8.13;;;15.20;60.50;;;;;;5055830;28;20435;-80
2023/03/18 10:34:51;;;;;;;67.97;6.63;;;15.40;71.60;;;;;;5057282;28;20374;-80
2023/03/18 10:37:41;;;;;;;68.07;6.50;;;15.50;54.80;;;;;;5057984;28;20449;-80
2023/03/18 10:40:19;;;;;;;66.47;5.00;;;15.60;56.80;;;;;;5053670;28;20411;-80
2023/03/18 10:42:48;;;;;;;71.30;4.80;;;15.70;38.50;;;;;;5058407;28;20426;-79
2023/03/18 10:45:24;;;;;;;67.50;6.50;;;15.80;43.50;;;;;;5051248;28;20438;-79
2023/03/18 10:48:00;;;;;;;68.70;4.80;;;16.00;46.10;;;;;;5056602;28;20481;-79
2023/03/18 10:50:35;;;;;;;70.57;4.70;;;16.20;27.10;;;;;;5056905;28;20372;-80
2023/03/18 10:53:11;;;;;;;65.87;3.90;;;16.20;11.60;;;;;;5047513;28;20497;-79
2023/03/18 10:55:56;;;;;;;66.67;4.40;;;16.50;25.20;;;;;;5056309;28;20387;-79
2023/03/18 10:58:22;;;;;;;66.87;5.27;;;16.80;5.40;;;;;;5050485;28;20407;-79
2023/03/18 11:00:50;;;;;;;64.90;4.30;;;17.10;1.00;;;;;;5055502;28;20406;-80
2023/03/18 11:03:26;;;;;;;67.07;4.00;;;17.30;1.00;;;;;;5059496;28;20414;-80
2023/03/18 11:05:55;;;;;;;65.03;3.37;;;17.30;1.00;;;;;;5062841;28;20434;-79
2023/03/18 11:08:35;;;;;;;67.00;3.70;;;17.20;1.00;;;;;;5057659;28;20438;-80
2023/03/18 11:11:24;;;;;;;66.77;3.63;;;17.40;1.00;;;;;;5062440;28;20774;-79
2023/03/18 11:13:53;;;;;;;66.17;3.40;;;17.50;1.00;;;;;;5062136;28;20436;-79
2023/03/18 11:16:29;;;;;;;64.50;3.30;;;17.30;1.00;;;;;;5057027;28;20514;-80
2023/03/18 11:18:55;;;;;;;66.10;3.40;;;17.30;1.00;;;;;;5063045;28;20381;-79
2023/03/18 11:21:22;;;;;;;67.60;3.40;;;17.40;1.00;;;;;;5063001;28;20766;-79
2023/03/18 11:24:09;;;;;;;66.13;3.40;;;17.60;1.00;;;;;;5060959;28;20459;-79
2023/03/18 11:26:51;;;;;;;65.47;3.53;;;18.00;1.00;;;;;;5063229;28;20380;-80
2023/03/18 11:29:24;;;;;;;64.90;3.00;;;18.10;1.00;;;;;;5063370;28;20421;-79
2023/03/18 11:31:56;;;;;;;64.97;3.10;;;18.20;1.00;;;;;;5063014;28;20402;-80
2023/03/18 11:34:23;;;;;;;66.40;3.43;;;18.20;1.00;;;;;;5063460;28;20878;-80
2023/03/18 11:36:58;;;;;;;65.40;3.50;;;17.90;1.00;;;;;;5063091;28;20962;-80
2023/03/18 11:39:26;;;;;;;67.17;2.90;;;17.80;1.00;;;;;;5063193;28;20477;-80
2023/03/18 11:41:52;;;;;;;65.10;3.40;;;17.40;1.00;;;;;;5063193;28;20397;-80
2023/03/18 11:44:24;;;;;;;65.53;3.23;;;17.20;1.00;;;;;;5168510;22;20481;-86
2023/03/18 11:47:13;;;;;;;65.57;3.50;;;17.10;1.00;;;;;;5058707;28;20920;-86
2023/03/18 11:49:39;;;;;;;69.93;3.30;;;17.20;1.00;;;;;;5043458;28;20398;-86
2023/03/18 11:52:29;;;;;;;65.40;3.23;;;17.30;1.00;;;;;;5043406;28;20435;-86
2023/03/18 11:55:01;;;;;;;65.90;3.33;;;17.50;1.00;;;;;;5043866;28;20156;-87
2023/03/18 11:58:20;;;;;;;;;;;;;;;;;;;;;
2023/03/18 12:01:33;;;;;;;66.67;3.73;;;17.50;1.00;;;;;;5024880;28;21083;-86
2023/03/18 12:08:15;;;;;;;65.97;3.20;;;17.90;1.00;;;;;;5023098;28;20477;-87
2023/03/18 12:11:20;;;;;;;66.30;3.30;;;18.10;1.00;;;;;;5018957;28;20489;-86
2023/03/18 12:14:39;;;;;;;66.20;2.50;;;18.00;1.00;;;;;;5005722;28;20435;-86
2023/03/18 12:21:43;;;;;;;65.23;2.87;;;17.80;1.00;;;;;;4961942;28;20412;-86
2023/03/18 12:28:10;;;;;;;65.90;3.00;;;17.90;1.00;;;;;;4997897;28;20452;-86
2023/03/18 12:30:54;;;;;;;65.57;3.20;;;18.10;1.00;;;;;;5039588;28;20486;-87
2023/03/18 12:33:58;;;;;;;;;;;;;;;;;;;;;
2023/03/18 12:36:52;;;;;;;65.80;3.10;;;18.20;1.00;;;;;;5041266;28;20467;-86
2023/03/18 12:40:01;;;;;;;70.80;3.60;;;18.40;1.00;;;;;;5034148;28;20412;-86
2023/03/18 12:42:39;;;;;;;66.20;2.87;;;18.60;1.00;;;;;;5040295;28;20435;-86
2023/03/18 12:45:29;;;;;;;66.20;3.30;;;18.80;1.00;;;;;;5039900;28;20424;-86
2023/03/18 12:48:15;;;;;;;65.37;2.67;;;18.90;1.00;;;;;;5033561;28;20503;-87
2023/03/18 12:50:48;;;;;;;67.90;2.97;;;18.60;1.00;;;;;;5040411;28;20388;-86
2023/03/18 12:53:49;;;;;;;64.90;2.70;;;18.40;1.00;;;;;;5040954;28;20456;-86
2023/03/18 12:56:25;;;;;;;67.53;2.93;;;18.10;1.00;;;;;;5032426;28;20411;-86
2023/03/18 12:58:59;;;;;;;65.03;3.10;;;17.90;1.00;;;;;;5040224;28;20427;-86
2023/03/18 13:01:56;;;;;;;67.37;3.70;;;17.60;1.00;;;;;;5040803;28;20871;-86
2023/03/18 13:04:32;;;;;;;66.90;2.90;;;17.30;1.00;;;;;;5040278;28;20546;-87
2023/03/18 13:07:02;;;;;;;67.03;3.10;;;17.10;1.00;;;;;;5033136;28;20943;-86
2023/03/18 13:09:34;;;;;;;66.27;3.10;;;17.00;1.00;;;;;;5035489;28;20409;-86
2023/03/18 13:12:13;;;;;;;66.50;3.00;;;16.90;1.00;;;;;;5040295;28;20468;-87
2023/03/18 13:14:55;;;;;;;66.97;3.50;;;17.00;1.00;;;;;;5040212;28;20373;-86
2023/03/18 13:17:35;;;;;;;65.37;3.00;;;16.90;1.00;;;;;;5039711;28;20406;-86
2023/03/18 13:20:12;;;;;;;64.90;2.80;;;16.90;1.00;;;;;;5028970;28;20429;-86
2023/03/18 13:22:51;;;;;;;67.03;3.37;;;16.90;1.00;;;;;;5037512;28;20518;-86
2023/03/18 13:25:35;;;;;;;67.30;3.03;;;16.90;1.00;;;;;;5038567;28;20828;-86
2023/03/18 13:28:04;;;;;;;66.93;2.33;;;16.80;1.00;;;;;;5030079;28;20457;-87
2023/03/18 13:30:50;;;;;;;66.60;3.20;;;16.80;1.00;;;;;;5038290;28;20772;-86
2023/03/18 13:33:35;;;;;;;67.90;3.23;;;16.70;1.00;;;;;;5038801;28;20476;-86
2023/03/18 13:36:22;;;;;;;67.40;2.67;;;16.70;1.00;;;;;;5039578;28;20393;-86
2023/03/18 13:39:32;;;;;;;67.77;3.60;;;16.60;1.00;;;;;;5038918;28;20403;-85
2023/03/18 13:42:20;;;;;;;67.87;4.00;;;16.60;1.00;;;;;;5039130;28;20401;-85
2023/03/18 13:44:54;;;;;;;66.40;3.10;;;16.50;1.00;;;;;;5039174;28;20437;-87
2023/03/18 13:47:23;;;;;;;65.47;2.67;;;16.50;1.00;;;;;;5032850;28;20819;-85
2023/03/18 13:50:14;;;;;;;66.07;3.10;;;16.40;1.00;;;;;;5038059;28;20480;-85
2023/03/18 13:52:45;;;;;;;68.30;3.40;;;16.40;1.00;;;;;;5036276;28;20428;-86
2023/03/18 13:55:31;;;;;;;66.07;3.53;;;16.40;1.00;;;;;;5033212;28;20418;-85
2023/03/18 13:58:29;;;;;;;70.40;3.20;;;16.40;1.00;;;;;;5039430;28;20416;-85